sensor_id;sensor_type;location;lat;lon;timestamp;pressure;altitude;pressure_sealevel;temperature;humidity
59690;BME280;45557;50.298;18.930;2022-10-16T00:00:36;98455.55;;;13.40;75.13
59690;BME280;45557;50.298;18.930;2022-10-16T00:07:26;98465.60;;;13.43;75.16
59690;BME280;45557;50.298;18.930;2022-10-16T00:14:11;98462.71;;;13.40;75.30
59690;BME280;45557;50.298;18.930;2022-10-16T00:41:48;98458.62;;;13.32;75.42
59690;BME280;45557;50.298;18.930;2022-10-16T00:56:10;98466.63;;;13.11;76.05
59690;BME280;45557;50.298;18.930;2022-10-16T01:02:57;98461.67;;;13.10;76.30
59690;BME280;45557;50.298;18.930;2022-10-16T01:36:52;98468.38;;;13.09;76.61
59690;BME280;45557;50.298;18.930;2022-10-16T01:43:33;98469.09;;;13.12;76.60
59690;BME280;45557;50.298;18.930;2022-10-16T01:50:15;98475.95;;;13.13;76.53
59690;BME280;45557;50.298;18.930;2022-10-16T01:56:56;98470.36;;;13.09;76.47
59690;BME280;45557;50.298;18.930;2022-10-16T02:03:38;98479.75;;;13.10;76.40
59690;BME280;45557;50.298;18.930;2022-10-16T02:10:21;98488.23;;;13.08;76.32
59690;BME280;45557;50.298;18.930;2022-10-16T02:17:10;98497.65;;;13.03;76.33
59690;BME280;45557;50.298;18.930;2022-10-16T02:24:03;98500.54;;;13.03;76.48
59690;BME280;45557;50.298;18.930;2022-10-16T02:30:52;98505.23;;;13.01;76.50
59690;BME280;45557;50.298;18.930;2022-10-16T02:37:31;98499.30;;;12.96;76.46
59690;BME280;45557;50.298;18.930;2022-10-16T02:44:14;98489.77;;;12.92;76.48
59690;BME280;45557;50.298;18.930;2022-10-16T02:50:57;98488.34;;;12.82;76.74
59690;BME280;45557;50.298;18.930;2022-10-16T02:57:41;98498.59;;;12.71;76.76
59690;BME280;45557;50.298;18.930;2022-10-16T03:04:24;98502.17;;;12.65;76.85
59690;BME280;45557;50.298;18.930;2022-10-16T03:11:08;98506.12;;;12.63;76.85
59690;BME280;45557;50.298;18.930;2022-10-16T03:17:51;98509.39;;;12.60;77.10
59690;BME280;45557;50.298;18.930;2022-10-16T03:24:36;98513.52;;;12.59;77.10
59690;BME280;45557;50.298;18.930;2022-10-16T03:31:19;98517.77;;;12.62;77.21
59690;BME280;45557;50.298;18.930;2022-10-16T03:38:02;98524.75;;;12.67;77.29
59690;BME280;45557;50.298;18.930;2022-10-16T03:44:45;98538.29;;;12.72;77.13
59690;BME280;45557;50.298;18.930;2022-10-16T03:51:28;98534.15;;;12.81;77.00
59690;BME280;45557;50.298;18.930;2022-10-16T03:58:11;98532.19;;;12.89;76.83
59690;BME280;45557;50.298;18.930;2022-10-16T04:04:54;98534.48;;;12.95;76.79
59690;BME280;45557;50.298;18.930;2022-10-16T04:11:38;98537.58;;;13.01;76.54
59690;BME280;45557;50.298;18.930;2022-10-16T04:18:21;98540.59;;;12.98;76.41
59690;BME280;45557;50.298;18.930;2022-10-16T04:25:04;98550.61;;;12.95;76.38
59690;BME280;45557;50.298;18.930;2022-10-16T04:31:48;98538.00;;;13.02;76.56
59690;BME280;45557;50.298;18.930;2022-10-16T04:38:33;98531.67;;;13.01;76.08
59690;BME280;45557;50.298;18.930;2022-10-16T04:45:16;98540.40;;;12.87;76.09
59690;BME280;45557;50.298;18.930;2022-10-16T04:51:59;98545.30;;;12.87;76.48
59690;BME280;45557;50.298;18.930;2022-10-16T04:58:42;98552.45;;;12.91;76.34
59690;BME280;45557;50.298;18.930;2022-10-16T05:05:25;98552.94;;;12.90;76.03
59690;BME280;45557;50.298;18.930;2022-10-16T05:12:08;98555.26;;;12.93;76.05
59690;BME280;45557;50.298;18.930;2022-10-16T05:18:51;98579.91;;;12.91;76.14
59690;BME280;45557;50.298;18.930;2022-10-16T05:25:34;98587.20;;;12.74;75.69
59690;BME280;45557;50.298;18.930;2022-10-16T05:32:17;98588.63;;;12.51;76.66
59690;BME280;45557;50.298;18.930;2022-10-16T05:39:00;98587.73;;;12.55;77.44
59690;BME280;45557;50.298;18.930;2022-10-16T05:45:43;98597.38;;;12.65;77.37
59690;BME280;45557;50.298;18.930;2022-10-16T05:52:27;98602.10;;;12.79;77.22
59690;BME280;45557;50.298;18.930;2022-10-16T05:59:10;98609.45;;;12.88;76.75
59690;BME280;45557;50.298;18.930;2022-10-16T06:05:53;98619.61;;;12.94;76.77
59690;BME280;45557;50.298;18.930;2022-10-16T06:12:37;98627.86;;;13.13;76.65
59690;BME280;45557;50.298;18.930;2022-10-16T06:19:20;98636.98;;;13.36;76.45
59690;BME280;45557;50.298;18.930;2022-10-16T06:26:12;98644.27;;;13.56;75.98
59690;BME280;45557;50.298;18.930;2022-10-16T06:32:51;98654.41;;;13.79;75.67
59690;BME280;45557;50.298;18.930;2022-10-16T06:39:47;98656.89;;;14.00;75.03
59690;BME280;45557;50.298;18.930;2022-10-16T06:46:32;98666.62;;;14.25;74.55
59690;BME280;45557;50.298;18.930;2022-10-16T06:53:25;98667.23;;;14.45;73.36
59690;BME280;45557;50.298;18.930;2022-10-16T07:00:30;98674.75;;;14.70;72.32
59690;BME280;45557;50.298;18.930;2022-10-16T07:14:02;98674.38;;;14.97;70.15
59690;BME280;45557;50.298;18.930;2022-10-16T07:20:47;98675.89;;;15.00;69.29
59690;BME280;45557;50.298;18.930;2022-10-16T07:27:31;98681.73;;;15.00;69.17
59690;BME280;45557;50.298;18.930;2022-10-16T07:34:15;98691.54;;;15.11;69.09
59690;BME280;45557;50.298;18.930;2022-10-16T07:40:59;98688.19;;;15.40;68.90
59690;BME280;45557;50.298;18.930;2022-10-16T07:47:46;98686.09;;;15.73;67.95
59690;BME280;45557;50.298;18.930;2022-10-16T07:54:28;98688.70;;;15.90;67.04
59690;BME280;45557;50.298;18.930;2022-10-16T08:01:13;98705.02;;;16.11;66.88
59690;BME280;45557;50.298;18.930;2022-10-16T08:07:57;98711.95;;;16.44;66.26
59690;BME280;45557;50.298;18.930;2022-10-16T08:14:08;98706.31;;;16.71;64.79
59690;BME280;45557;50.298;18.930;2022-10-16T08:20:59;98699.13;;;16.80;63.62
59690;BME280;45557;50.298;18.930;2022-10-16T08:27:45;98700.41;;;17.03;63.58
59690;BME280;45557;50.298;18.930;2022-10-16T08:34:35;98712.16;;;17.24;61.97
59690;BME280;45557;50.298;18.930;2022-10-16T08:55:28;98723.91;;;17.61;59.48
59690;BME280;45557;50.298;18.930;2022-10-16T09:08:01;98724.19;;;17.77;59.49
59690;BME280;45557;50.298;18.930;2022-10-16T09:14:50;98725.91;;;18.04;64.27
59690;BME280;45557;50.298;18.930;2022-10-16T09:21:30;98728.18;;;18.65;64.68
59690;BME280;45557;50.298;18.930;2022-10-16T09:28:17;98734.46;;;19.23;63.00
59690;BME280;45557;50.298;18.930;2022-10-16T09:35:00;98741.10;;;19.65;61.70
59690;BME280;45557;50.298;18.930;2022-10-16T09:47:50;98748.83;;;20.03;58.79
59690;BME280;45557;50.298;18.930;2022-10-16T09:54:34;98754.70;;;20.25;58.93
59690;BME280;45557;50.298;18.930;2022-10-16T10:01:22;98746.70;;;20.43;58.10
59690;BME280;45557;50.298;18.930;2022-10-16T10:08:04;98747.33;;;20.59;56.58
59690;BME280;45557;50.298;18.930;2022-10-16T10:14:51;98753.58;;;20.71;56.04
59690;BME280;45557;50.298;18.930;2022-10-16T10:21:34;98755.20;;;20.86;54.92
59690;BME280;45557;50.298;18.930;2022-10-16T10:34:45;98761.81;;;20.72;52.88
59690;BME280;45557;50.298;18.930;2022-10-16T11:00:05;98752.60;;;19.59;54.67
59690;BME280;45557;50.298;18.930;2022-10-16T11:12:34;98749.84;;;19.42;55.58
59690;BME280;45557;50.298;18.930;2022-10-16T11:18:30;98752.91;;;19.45;55.79
59690;BME280;45557;50.298;18.930;2022-10-16T11:24:58;98760.00;;;19.55;56.04
59690;BME280;45557;50.298;18.930;2022-10-16T11:31:38;98762.53;;;19.64;56.06
59690;BME280;45557;50.298;18.930;2022-10-16T11:37:44;98762.22;;;19.80;55.70
59690;BME280;45557;50.298;18.930;2022-10-16T11:43:22;98759.25;;;19.99;55.18
59690;BME280;45557;50.298;18.930;2022-10-16T11:54:32;98762.52;;;20.13;54.39
59690;BME280;45557;50.298;18.930;2022-10-16T12:00:10;98761.39;;;20.21;54.06
59690;BME280;45557;50.298;18.930;2022-10-16T12:06:01;98763.63;;;20.34;53.90
59690;BME280;45557;50.298;18.930;2022-10-16T12:11:38;98771.12;;;20.39;53.56
59690;BME280;45557;50.298;18.930;2022-10-16T12:17:33;98784.29;;;20.41;53.79
59690;BME280;45557;50.298;18.930;2022-10-16T12:30:22;98782.92;;;20.98;52.65
59690;BME280;45557;50.298;18.930;2022-10-16T12:35:45;98783.87;;;20.97;52.19
59690;BME280;45557;50.298;18.930;2022-10-16T12:41:09;98782.34;;;20.81;52.78
59690;BME280;45557;50.298;18.930;2022-10-16T12:46:52;98781.15;;;20.78;53.14
59690;BME280;45557;50.298;18.930;2022-10-16T12:52:47;98781.79;;;20.61;53.13
59690;BME280;45557;50.298;18.930;2022-10-16T12:59:38;98786.57;;;20.31;54.04
59690;BME280;45557;50.298;18.930;2022-10-16T13:12:04;98789.15;;;19.89;55.08
59690;BME280;45557;50.298;18.930;2022-10-16T13:18:24;98794.05;;;19.84;55.99
59690;BME280;45557;50.298;18.930;2022-10-16T13:25:23;98793.71;;;20.04;56.00
59690;BME280;45557;50.298;18.930;2022-10-16T13:30:24;98793.45;;;20.43;54.61
59690;BME280;45557;50.298;18.930;2022-10-16T13:36:01;98797.79;;;20.30;54.44
59690;BME280;45557;50.298;18.930;2022-10-16T13:42:26;98789.17;;;20.09;54.28
59690;BME280;45557;50.298;18.930;2022-10-16T13:48:15;98779.01;;;20.02;53.98
59690;BME280;45557;50.298;18.930;2022-10-16T13:53:58;98775.66;;;20.32;53.56
59690;BME280;45557;50.298;18.930;2022-10-16T14:04:45;98780.52;;;20.37;52.50
59690;BME280;45557;50.298;18.930;2022-10-16T14:10:24;98780.52;;;20.55;52.20
59690;BME280;45557;50.298;18.930;2022-10-16T14:15:49;98798.55;;;20.93;51.55
59690;BME280;45557;50.298;18.930;2022-10-16T14:21:14;98814.23;;;21.28;50.86
59690;BME280;45557;50.298;18.930;2022-10-16T14:26:44;98818.33;;;21.62;50.33
59690;BME280;45557;50.298;18.930;2022-10-16T14:32:26;98815.00;;;21.99;49.63
59690;BME280;45557;50.298;18.930;2022-10-16T14:37:52;98822.37;;;22.34;48.70
59690;BME280;45557;50.298;18.930;2022-10-16T14:43:49;98821.95;;;22.33;48.20
59690;BME280;45557;50.298;18.930;2022-10-16T14:49:19;98813.14;;;22.50;47.96
59690;BME280;45557;50.298;18.930;2022-10-16T14:54:48;98824.56;;;22.58;47.63
59690;BME280;45557;50.298;18.930;2022-10-16T15:00:18;98836.51;;;22.24;47.57
59690;BME280;45557;50.298;18.930;2022-10-16T15:05:41;98840.23;;;22.00;48.29
59690;BME280;45557;50.298;18.930;2022-10-16T15:11:04;98829.67;;;22.06;48.45
59690;BME280;45557;50.298;18.930;2022-10-16T15:16:26;98830.16;;;22.01;48.36
59690;BME280;45557;50.298;18.930;2022-10-16T15:21:48;98832.98;;;21.85;48.69
59690;BME280;45557;50.298;18.930;2022-10-16T15:27:11;98835.28;;;21.53;48.98
59690;BME280;45557;50.298;18.930;2022-10-16T15:32:34;98840.52;;;21.06;49.76
59690;BME280;45557;50.298;18.930;2022-10-16T15:37:56;98851.34;;;20.58;51.00
59690;BME280;45557;50.298;18.930;2022-10-16T15:43:18;98854.77;;;20.15;52.04
59690;BME280;45557;50.298;18.930;2022-10-16T15:48:43;98852.25;;;19.81;52.78
59690;BME280;45557;50.298;18.930;2022-10-16T15:54:05;98864.36;;;19.47;53.96
59690;BME280;45557;50.298;18.930;2022-10-16T15:59:27;98871.33;;;19.15;54.71
59690;BME280;45557;50.298;18.930;2022-10-16T16:04:49;98879.55;;;18.88;55.51
59690;BME280;45557;50.298;18.930;2022-10-16T16:10:11;98879.14;;;18.64;56.37
59690;BME280;45557;50.298;18.930;2022-10-16T16:15:34;98876.80;;;18.41;57.30
59690;BME280;45557;50.298;18.930;2022-10-16T16:20:55;98881.85;;;18.18;57.91
59690;BME280;45557;50.298;18.930;2022-10-16T16:26:24;98885.89;;;17.97;58.64
59690;BME280;45557;50.298;18.930;2022-10-16T16:31:47;98894.98;;;17.77;59.35
59690;BME280;45557;50.298;18.930;2022-10-16T16:37:09;98905.98;;;17.57;60.19
59690;BME280;45557;50.298;18.930;2022-10-16T16:42:31;98922.25;;;17.38;60.83
59690;BME280;45557;50.298;18.930;2022-10-16T16:47:52;98934.84;;;17.22;61.37
59690;BME280;45557;50.298;18.930;2022-10-16T16:53:14;98933.36;;;17.09;61.80
59690;BME280;45557;50.298;18.930;2022-10-16T16:58:37;98937.44;;;17.02;62.25
59690;BME280;45557;50.298;18.930;2022-10-16T17:03:59;98944.48;;;16.95;62.48
59690;BME280;45557;50.298;18.930;2022-10-16T17:09:23;98951.05;;;16.84;62.97
59690;BME280;45557;50.298;18.930;2022-10-16T17:14:45;98960.02;;;16.72;63.34
59690;BME280;45557;50.298;18.930;2022-10-16T17:20:07;98970.48;;;16.62;63.71
59690;BME280;45557;50.298;18.930;2022-10-16T17:25:30;98976.42;;;16.51;64.19
59690;BME280;45557;50.298;18.930;2022-10-16T17:30:54;98980.48;;;16.47;64.60
59690;BME280;45557;50.298;18.930;2022-10-16T17:36:17;98984.48;;;16.44;64.95
59690;BME280;45557;50.298;18.930;2022-10-16T17:41:39;98988.36;;;16.38;65.25
59690;BME280;45557;50.298;18.930;2022-10-16T17:47:01;99003.37;;;16.30;65.64
59690;BME280;45557;50.298;18.930;2022-10-16T17:52:23;99014.67;;;16.21;65.89
59690;BME280;45557;50.298;18.930;2022-10-16T17:57:45;99017.45;;;16.19;66.13
59690;BME280;45557;50.298;18.930;2022-10-16T18:03:08;99015.98;;;16.17;66.22
59690;BME280;45557;50.298;18.930;2022-10-16T18:08:30;99018.51;;;16.13;66.45
59690;BME280;45557;50.298;18.930;2022-10-16T18:13:53;99025.67;;;16.04;66.65
59690;BME280;45557;50.298;18.930;2022-10-16T18:19:15;99028.91;;;15.94;67.01
59690;BME280;45557;50.298;18.930;2022-10-16T18:24:37;99036.90;;;15.88;67.30
59690;BME280;45557;50.298;18.930;2022-10-16T18:29:59;99043.48;;;15.83;67.55
59690;BME280;45557;50.298;18.930;2022-10-16T18:35:21;99040.11;;;15.77;67.98
59690;BME280;45557;50.298;18.930;2022-10-16T18:40:43;99046.94;;;15.69;68.26
59690;BME280;45557;50.298;18.930;2022-10-16T18:46:09;99055.36;;;15.64;68.49
59690;BME280;45557;50.298;18.930;2022-10-16T18:51:37;99061.36;;;15.61;68.83
59690;BME280;45557;50.298;18.930;2022-10-16T18:57:01;99067.54;;;15.54;69.00
59690;BME280;45557;50.298;18.930;2022-10-16T19:02:22;99072.60;;;15.45;69.19
59690;BME280;45557;50.298;18.930;2022-10-16T19:07:45;99074.20;;;15.41;69.39
59690;BME280;45557;50.298;18.930;2022-10-16T19:13:09;99079.71;;;15.39;69.59
59690;BME280;45557;50.298;18.930;2022-10-16T19:18:31;99087.81;;;15.36;69.79
59690;BME280;45557;50.298;18.930;2022-10-16T19:24:00;99094.02;;;15.32;69.93
59690;BME280;45557;50.298;18.930;2022-10-16T19:29:22;99104.06;;;15.33;72.52
59690;BME280;45557;50.298;18.930;2022-10-16T19:34:48;99104.91;;;15.74;76.34
59690;BME280;45557;50.298;18.930;2022-10-16T19:40:11;99110.92;;;16.24;75.41
59690;BME280;45557;50.298;18.930;2022-10-16T19:45:33;99114.66;;;16.68;74.21
59690;BME280;45557;50.298;18.930;2022-10-16T19:50:55;99119.48;;;17.06;73.57
59690;BME280;45557;50.298;18.930;2022-10-16T19:56:19;99116.71;;;17.22;69.48
59690;BME280;45557;50.298;18.930;2022-10-16T20:01:44;99116.77;;;16.89;66.72
59690;BME280;45557;50.298;18.930;2022-10-16T20:07:06;99123.31;;;16.54;66.68
59690;BME280;45557;50.298;18.930;2022-10-16T20:12:28;99133.67;;;16.21;67.02
59690;BME280;45557;50.298;18.930;2022-10-16T20:17:51;99136.45;;;15.87;67.62
59690;BME280;45557;50.298;18.930;2022-10-16T20:23:12;99137.83;;;15.57;68.39
59690;BME280;45557;50.298;18.930;2022-10-16T20:28:34;99142.13;;;15.36;69.15
59690;BME280;45557;50.298;18.930;2022-10-16T20:33:59;99147.34;;;15.17;69.79
59690;BME280;45557;50.298;18.930;2022-10-16T20:39:22;99152.09;;;15.01;70.33
59690;BME280;45557;50.298;18.930;2022-10-16T20:44:44;99157.54;;;14.86;70.93
59690;BME280;45557;50.298;18.930;2022-10-16T20:50:11;99162.20;;;14.80;71.22
59690;BME280;45557;50.298;18.930;2022-10-16T20:55:35;99168.27;;;14.77;71.28
59690;BME280;45557;50.298;18.930;2022-10-16T21:01:09;99180.02;;;14.76;71.37
59690;BME280;45557;50.298;18.930;2022-10-16T21:06:34;99183.43;;;14.72;71.50
59690;BME280;45557;50.298;18.930;2022-10-16T21:11:56;99186.39;;;14.66;71.55
59690;BME280;45557;50.298;18.930;2022-10-16T21:17:18;99191.00;;;14.65;71.83
59690;BME280;45557;50.298;18.930;2022-10-16T21:22:40;99197.02;;;14.66;71.55
59690;BME280;45557;50.298;18.930;2022-10-16T21:28:05;99204.88;;;14.64;71.53
59690;BME280;45557;50.298;18.930;2022-10-16T21:33:30;99212.98;;;14.57;71.88
59690;BME280;45557;50.298;18.930;2022-10-16T21:38:53;99216.23;;;14.48;71.96
59690;BME280;45557;50.298;18.930;2022-10-16T21:44:18;99218.45;;;14.43;72.14
59690;BME280;45557;50.298;18.930;2022-10-16T21:49:45;99228.22;;;14.46;72.22
59690;BME280;45557;50.298;18.930;2022-10-16T21:55:10;99235.04;;;14.47;72.33
59690;BME280;45557;50.298;18.930;2022-10-16T22:00:35;99237.20;;;14.45;72.32
59690;BME280;45557;50.298;18.930;2022-10-16T22:06:03;99238.35;;;14.43;72.34
59690;BME280;45557;50.298;18.930;2022-10-16T22:11:32;99230.22;;;14.43;72.37
59690;BME280;45557;50.298;18.930;2022-10-16T22:16:57;99231.54;;;14.42;72.34
59690;BME280;45557;50.298;18.930;2022-10-16T22:22:19;99237.31;;;14.29;72.34
59690;BME280;45557;50.298;18.930;2022-10-16T22:27:42;99237.94;;;14.12;72.82
59690;BME280;45557;50.298;18.930;2022-10-16T22:33:04;99238.77;;;14.09;73.24
59690;BME280;45557;50.298;18.930;2022-10-16T22:38:49;99246.29;;;14.11;73.45
59690;BME280;45557;50.298;18.930;2022-10-16T22:45:12;99250.77;;;14.10;73.28
59690;BME280;45557;50.298;18.930;2022-10-16T22:51:41;99257.56;;;14.05;73.17
59690;BME280;45557;50.298;18.930;2022-10-16T22:57:24;99257.98;;;14.05;73.20
59690;BME280;45557;50.298;18.930;2022-10-16T23:04:06;99261.28;;;13.99;73.32
59690;BME280;45557;50.298;18.930;2022-10-16T23:10:08;99259.20;;;13.94;73.44
59690;BME280;45557;50.298;18.930;2022-10-16T23:16:14;99264.01;;;13.97;73.61
59690;BME280;45557;50.298;18.930;2022-10-16T23:21:59;99260.46;;;13.97;73.56
59690;BME280;45557;50.298;18.930;2022-10-16T23:27:49;99262.88;;;13.93;73.70
59690;BME280;45557;50.298;18.930;2022-10-16T23:33:45;99268.77;;;13.87;73.64
59690;BME280;45557;50.298;18.930;2022-10-16T23:40:28;99268.13;;;13.88;73.62
59690;BME280;45557;50.298;18.930;2022-10-16T23:46:53;99270.92;;;13.88;73.64
59690;BME280;45557;50.298;18.930;2022-10-16T23:53:36;99271.34;;;13.85;73.55
